createdAt,value
2022-08-31T00:01:46.631Z,100684.17
2022-08-31T00:03:51.362Z,100688.72
2022-08-31T00:05:55.984Z,100687.31
2022-08-31T00:08:00.602Z,100685.94
2022-08-31T00:10:05.234Z,100685.76
2022-08-31T00:12:11.185Z,100688.61
2022-08-31T00:14:15.790Z,100686.18
2022-08-31T00:16:21.869Z,100681.76
2022-08-31T00:18:26.577Z,100678.27
2022-08-31T00:20:35.289Z,100676.91
2022-08-31T00:22:39.908Z,100677.8
2022-08-31T00:24:44.427Z,100677.55
2022-08-31T00:26:48.948Z,100676.98
2022-08-31T00:28:53.464Z,100677.16
2022-08-31T00:30:57.982Z,100678.56
2022-08-31T00:33:02.493Z,100679.06
2022-08-31T00:35:07.121Z,100676
2022-08-31T00:37:11.643Z,100680.7
2022-08-31T00:39:16.368Z,100679.19
2022-08-31T00:41:21.085Z,100674.48
2022-08-31T00:43:25.705Z,100672.06
2022-08-31T00:45:30.411Z,100671.3
2022-08-31T00:47:35.161Z,100672.84
2022-08-31T00:49:39.775Z,100674.09
2022-08-31T00:51:44.368Z,100676.48
2022-08-31T00:53:51.822Z,100675.16
2022-08-31T00:55:56.505Z,100678.96
2022-08-31T00:58:01.120Z,100678.8
2022-08-31T01:00:06.195Z,100677.91
2022-08-31T01:02:10.917Z,100677.02
2022-08-31T01:04:15.691Z,100673.91
2022-08-31T01:06:20.201Z,100676.91
2022-08-31T01:08:31.763Z,100674.89
2022-08-31T01:10:36.331Z,100675.93
2022-08-31T01:12:41.399Z,100677.34
2022-08-31T01:14:48.947Z,100674.35
2022-08-31T01:16:53.611Z,100671.13
2022-08-31T01:18:58.187Z,100669.43
2022-08-31T01:21:02.707Z,100670.01
2022-08-31T01:23:08.292Z,100670.41
2022-08-31T01:25:12.875Z,100668.39
2022-08-31T01:27:17.491Z,100664.82
2022-08-31T01:29:22.087Z,100665.28
2022-08-31T01:31:26.714Z,100664.9
2022-08-31T01:33:31.455Z,100667.75
2022-08-31T01:35:36.084Z,100668.23
2022-08-31T01:37:40.799Z,100666.91
2022-08-31T01:39:45.419Z,100671.22
2022-08-31T01:41:50.044Z,100672.59
2022-08-31T01:43:54.685Z,100671.74
2022-08-31T01:45:59.382Z,100672.2
2022-08-31T01:48:03.963Z,100671.03
2022-08-31T01:50:08.525Z,100674.19
2022-08-31T01:52:13.115Z,100675.48
2022-08-31T01:54:17.669Z,100678.31
2022-08-31T01:56:22.289Z,100674.09
2022-08-31T01:58:27.007Z,100676.22
2022-08-31T02:00:31.728Z,100673.41
2022-08-31T02:02:36.558Z,100673.41
2022-08-31T02:04:41.388Z,100675.94
2022-08-31T02:06:45.997Z,100678.3
2022-08-31T02:08:50.619Z,100680.02
2022-08-31T02:10:55.345Z,100680.23
2022-08-31T02:12:59.949Z,100680.52
2022-08-31T02:15:04.587Z,100674.54
2022-08-31T02:17:09.312Z,100673.09
2022-08-31T02:19:13.938Z,100672.1
2022-08-31T02:21:18.553Z,100672.72
2022-08-31T02:23:23.181Z,100672.63
2022-08-31T02:25:27.651Z,100672.14
2022-08-31T02:27:32.311Z,100668.92
2022-08-31T02:29:36.918Z,100666.99
2022-08-31T02:31:41.604Z,100666.85
2022-08-31T02:33:46.268Z,100667.13
2022-08-31T02:35:54.726Z,100667.97
2022-08-31T02:38:00.147Z,100662.86
2022-08-31T02:40:06.135Z,100659.69
2022-08-31T02:42:15.803Z,100667.26
2022-08-31T02:44:22.966Z,100669.86
2022-08-31T02:46:27.671Z,100666.86
2022-08-31T02:48:32.449Z,100671.01
2022-08-31T02:50:39.192Z,100673.84
2022-08-31T02:52:43.735Z,100676.05
2022-08-31T02:54:48.358Z,100675.56
2022-08-31T02:56:52.874Z,100671.2
2022-08-31T02:58:57.475Z,100672.34
2022-08-31T03:01:02.020Z,100670.59
2022-08-31T03:03:06.931Z,100669.77
2022-08-31T03:05:11.658Z,100671.02
2022-08-31T03:07:18.889Z,100672.97
2022-08-31T03:09:23.467Z,100669.27
2022-08-31T03:11:27.984Z,100671.68
2022-08-31T03:13:32.603Z,100669.7
2022-08-31T03:15:37.375Z,100669.8
2022-08-31T03:17:42.153Z,100673.84
2022-08-31T03:19:46.873Z,100669.75
2022-08-31T03:21:57.230Z,100663.78
2022-08-31T03:24:01.853Z,100669.16
2022-08-31T03:26:06.475Z,100666.81
2022-08-31T03:28:11.067Z,100669.47
2022-08-31T03:30:15.611Z,100669.09
2022-08-31T03:32:20.217Z,100673.45
2022-08-31T03:34:24.725Z,100671.45
2022-08-31T03:36:29.239Z,100671.4
2022-08-31T03:38:33.994Z,100667.95
2022-08-31T03:40:38.793Z,100670.88
2022-08-31T03:42:43.726Z,100672.13
2022-08-31T03:44:48.261Z,100679.06
2022-08-31T03:46:52.868Z,100673.3
2022-08-31T03:48:57.396Z,100681.92
2022-08-31T03:51:02.010Z,100678.8
2022-08-31T03:53:06.538Z,100674.1
2022-08-31T03:55:11.158Z,100673.81
2022-08-31T03:57:15.758Z,100668.75
2022-08-31T03:59:20.401Z,100666.41
2022-08-31T04:01:25.141Z,100668.13
2022-08-31T04:03:29.896Z,100667.11
2022-08-31T04:05:34.470Z,100668.63
2022-08-31T04:07:43.900Z,100666.25
2022-08-31T04:09:48.508Z,100665.92
2022-08-31T04:11:53.290Z,100669.34
2022-08-31T04:13:57.856Z,100667.81
2022-08-31T04:16:02.538Z,100667.63
2022-08-31T04:18:07.212Z,100663.55
2022-08-31T04:20:11.812Z,100668.19
2022-08-31T04:22:16.351Z,100663.08
2022-08-31T04:24:20.951Z,100663.91
2022-08-31T04:26:25.560Z,100670.63
2022-08-31T04:28:30.108Z,100673.09
2022-08-31T04:30:34.728Z,100670.7
2022-08-31T04:32:39.248Z,100675.31
2022-08-31T04:34:43.961Z,100675.62
2022-08-31T04:36:48.489Z,100675.98
2022-08-31T04:38:53.724Z,100676.43
2022-08-31T04:40:58.890Z,100677.38
2022-08-31T04:43:03.482Z,100681.14
2022-08-31T04:45:08.094Z,100680.96
2022-08-31T04:47:12.620Z,100677.5
2022-08-31T04:49:18.404Z,100679.54
2022-08-31T04:51:22.982Z,100685.16
2022-08-31T04:53:27.558Z,100685.5
2022-08-31T04:55:32.236Z,100687.83
2022-08-31T04:57:36.849Z,100688.8
2022-08-31T04:59:41.362Z,100688.99
2022-08-31T05:01:46.161Z,100688.45
2022-08-31T05:03:51.131Z,100693.45
2022-08-31T05:05:55.710Z,100690.15
2022-08-31T05:08:00.251Z,100691.58
2022-08-31T05:10:04.880Z,100695.08
2022-08-31T05:12:09.462Z,100698.22
2022-08-31T05:14:14.020Z,100701.88
2022-08-31T05:16:18.849Z,100703.52
2022-08-31T05:18:23.558Z,100703.56
2022-08-31T05:20:28.187Z,100705.52
2022-08-31T05:22:32.803Z,100707.39
2022-08-31T05:24:37.424Z,100702.63
2022-08-31T05:26:43.275Z,100707.52
2022-08-31T05:28:47.790Z,100708.44
2022-08-31T05:30:52.460Z,100711.52
2022-08-31T05:32:57.346Z,100709.39
2022-08-31T05:35:02.082Z,100714.86
2022-08-31T05:37:06.796Z,100719.13
2022-08-31T05:39:11.415Z,100719.5
2022-08-31T05:41:16.503Z,100724.43
2022-08-31T05:43:21.518Z,100724.38
2022-08-31T05:45:26.091Z,100736.69
2022-08-31T05:47:30.614Z,100738.86
2022-08-31T05:49:35.335Z,100734.95
2022-08-31T05:51:40.208Z,100741.78
2022-08-31T05:53:45.475Z,100746.98
2022-08-31T05:55:50.126Z,100747.77
2022-08-31T05:57:54.718Z,100751.59
2022-08-31T05:59:59.768Z,100755.23
2022-08-31T06:02:04.571Z,100752.51
2022-08-31T06:04:09.305Z,100757.36
2022-08-31T06:06:13.852Z,100764.38
2022-08-31T06:08:18.458Z,100764.2
2022-08-31T06:10:31.765Z,100766.13
2022-08-31T06:12:36.284Z,100769.92
2022-08-31T06:14:45.182Z,100773.93
2022-08-31T06:16:56.299Z,100777.7
2022-08-31T06:19:00.914Z,100779.94
2022-08-31T06:21:05.636Z,100785.23
2022-08-31T06:23:10.256Z,100784.83
2022-08-31T06:25:15.054Z,100786.88
2022-08-31T06:27:19.601Z,100785.16
2022-08-31T06:29:24.307Z,100783.83
2022-08-31T06:31:29.124Z,100786.72
2022-08-31T06:33:33.873Z,100790.19
2022-08-31T06:35:38.383Z,100789.7
2022-08-31T06:37:43.009Z,100793.63
2022-08-31T06:39:47.801Z,100796.59
2022-08-31T06:41:52.354Z,100796.97
2022-08-31T06:43:56.790Z,100795.42
2022-08-31T06:46:01.704Z,100793.42
2022-08-31T06:48:06.283Z,100801.23
2022-08-31T06:50:10.834Z,100795.97
2022-08-31T06:52:15.389Z,100791.56
2022-08-31T06:54:31.021Z,100790.75
2022-08-31T06:56:35.536Z,100796.91
2022-08-31T06:58:40.069Z,100796.39
2022-08-31T07:00:44.797Z,100801.03
2022-08-31T07:02:58.672Z,100800.73
2022-08-31T07:05:03.659Z,100799.06
2022-08-31T07:07:08.400Z,100798.2
2022-08-31T07:09:13.221Z,100804.57
2022-08-31T07:11:18.150Z,100797.94
2022-08-31T07:13:22.982Z,100800.45
2022-08-31T07:15:27.806Z,100807.43
2022-08-31T07:17:32.628Z,100809.12
2022-08-31T07:19:38.291Z,100807.93
2022-08-31T07:21:49.978Z,100807.31
2022-08-31T07:23:54.785Z,100808.52
2022-08-31T07:25:59.712Z,100806.86
2022-08-31T07:28:05.740Z,100812.89
2022-08-31T07:30:10.593Z,100810.55
2022-08-31T07:32:15.519Z,100812.84
2022-08-31T07:34:20.478Z,100813.89
2022-08-31T07:36:25.377Z,100811.36
2022-08-31T07:38:30.311Z,100810.69
2022-08-31T07:40:35.269Z,100813.16
2022-08-31T07:42:40.900Z,100811.14
2022-08-31T07:44:54.425Z,100808.95
2022-08-31T07:46:59.233Z,100810.66
2022-08-31T07:49:04.363Z,100816.37
2022-08-31T07:51:15.198Z,100814.83
2022-08-31T07:53:23.632Z,100816.77
2022-08-31T07:55:28.465Z,100817.99
2022-08-31T07:57:33.289Z,100818.17
2022-08-31T07:59:38.111Z,100823.7
2022-08-31T08:01:43.053Z,100823.7
2022-08-31T08:03:47.872Z,100829.03
2022-08-31T08:05:53.282Z,100825.19
2022-08-31T08:07:58.130Z,100826.42
2022-08-31T08:10:02.960Z,100827.42
2022-08-31T08:12:09.111Z,100826.08
2022-08-31T08:14:17.317Z,100827.89
2022-08-31T08:16:23.961Z,100829.36
2022-08-31T08:18:28.913Z,100827.52
2022-08-31T08:20:39.245Z,100827.89
2022-08-31T08:22:55.898Z,100833.23
2022-08-31T08:25:00.795Z,100830.5
2022-08-31T08:27:06.745Z,100831.59
2022-08-31T08:29:11.881Z,100834.83
2022-08-31T08:31:16.948Z,100836.34
2022-08-31T08:33:22.145Z,100838.73
2022-08-31T08:35:27.071Z,100839.69
2022-08-31T08:38:01.323Z,100837.09
2022-08-31T08:40:11.654Z,100841.51
2022-08-31T08:42:16.316Z,100844.14
2022-08-31T08:44:20.936Z,100842.91
2022-08-31T08:46:36.142Z,100840.94
2022-08-31T08:48:41.168Z,100840.89
2022-08-31T08:50:48.219Z,100842.05
2022-08-31T08:52:52.775Z,100840.8
2022-08-31T08:54:57.492Z,100841.79
2022-08-31T08:57:02.774Z,100843.94
2022-08-31T08:59:14.766Z,100840.24
2022-08-31T09:01:23.933Z,100849.88
2022-08-31T09:03:30.611Z,100849.16
2022-08-31T09:05:37.689Z,100845.24
2022-08-31T09:07:42.524Z,100848.05
2022-08-31T09:09:47.241Z,100851.09
2022-08-31T09:11:51.966Z,100853.58
2022-08-31T09:13:56.695Z,100850.3
2022-08-31T09:16:02.717Z,100849.67
2022-08-31T09:18:07.673Z,100850.02
2022-08-31T09:20:12.290Z,100847.73
2022-08-31T09:22:17.011Z,100850.61
2022-08-31T09:24:21.616Z,100849.84
2022-08-31T09:26:26.253Z,100851.88
2022-08-31T09:28:30.864Z,100847.63
2022-08-31T09:30:35.654Z,100848.38
2022-08-31T09:32:40.219Z,100846.09
2022-08-31T09:34:45.194Z,100848.05
2022-08-31T09:36:49.766Z,100845.42
2022-08-31T09:38:54.594Z,100838.69
2022-08-31T09:40:59.288Z,100839.55
2022-08-31T09:43:06.555Z,100841.94
2022-08-31T09:45:11.624Z,100840.27
2022-08-31T09:47:18.805Z,100837.39
2022-08-31T09:49:23.422Z,100834.31
2022-08-31T09:51:28.048Z,100832.89
2022-08-31T09:53:32.658Z,100832.77
2022-08-31T09:55:37.295Z,100829.56
2022-08-31T09:57:41.885Z,100830
2022-08-31T09:59:46.656Z,100825.02
2022-08-31T10:01:51.513Z,100826.03
2022-08-31T10:03:56.273Z,100825.35
2022-08-31T10:06:00.893Z,100831.63
2022-08-31T10:08:05.546Z,100824.54
2022-08-31T10:10:31.005Z,100826.69
2022-08-31T10:12:36.285Z,100826.61
2022-08-31T10:14:41.009Z,100822.66
2022-08-31T10:16:45.717Z,100826.85
2022-08-31T10:18:50.355Z,100821.24
2022-08-31T10:20:55.081Z,100822.84
2022-08-31T10:22:59.710Z,100819.05
2022-08-31T10:25:04.323Z,100819.48
2022-08-31T10:27:09.035Z,100816.09
2022-08-31T10:29:23.539Z,100810.91
2022-08-31T10:31:28.608Z,100803.85
2022-08-31T10:33:33.322Z,100806.48
2022-08-31T10:35:37.979Z,100806.09
2022-08-31T10:37:42.699Z,100799.88
2022-08-31T10:39:47.323Z,100800.42
2022-08-31T10:41:51.910Z,100803.64
2022-08-31T10:43:56.466Z,100800.43
2022-08-31T10:46:01.298Z,100798.2
2022-08-31T10:48:06.059Z,100799.92
2022-08-31T10:50:10.637Z,100798.24
2022-08-31T10:52:15.259Z,100801.71
2022-08-31T10:54:19.779Z,100802.13
2022-08-31T10:56:25.271Z,100798.64
2022-08-31T10:58:30.301Z,100798.96
2022-08-31T11:00:35.063Z,100794.77
2022-08-31T11:02:39.671Z,100794.66
2022-08-31T11:04:44.361Z,100793.29
2022-08-31T11:06:49.131Z,100795.39
2022-08-31T11:08:53.737Z,100791.94
2022-08-31T11:10:58.288Z,100793.63
2022-08-31T11:13:02.961Z,100790.75
2022-08-31T11:15:07.531Z,100794.63
2022-08-31T11:17:13.232Z,100791.79
2022-08-31T11:19:17.910Z,100790.08
2022-08-31T11:21:22.599Z,100792.95
2022-08-31T11:23:27.248Z,100794.7
2022-08-31T11:25:32.079Z,100788.67
2022-08-31T11:27:36.693Z,100787.88
2022-08-31T11:29:41.331Z,100784.86
2022-08-31T11:31:46.058Z,100784.49
2022-08-31T11:34:16.909Z,100785.73
2022-08-31T11:36:22.011Z,100783.14
2022-08-31T11:38:26.736Z,100783.46
2022-08-31T11:40:31.535Z,100783.65
2022-08-31T11:42:40.069Z,100781.49
2022-08-31T11:44:44.804Z,100784.05
2022-08-31T11:46:49.525Z,100784.33
2022-08-31T11:48:55.600Z,100781.79
2022-08-31T11:51:00.201Z,100777.78
2022-08-31T11:53:04.755Z,100781.85
2022-08-31T11:55:09.352Z,100777.75
2022-08-31T11:57:14.068Z,100775.19
2022-08-31T11:59:18.777Z,100774.85
2022-08-31T12:01:23.519Z,100776.05
2022-08-31T12:03:28.380Z,100774.31
2022-08-31T12:05:33.087Z,100775.15
2022-08-31T12:07:37.885Z,100775.39
2022-08-31T12:09:42.819Z,100773.69
2022-08-31T12:11:47.438Z,100770.3
2022-08-31T12:13:52.062Z,100768.17
2022-08-31T12:15:57.006Z,100766.76
2022-08-31T12:18:01.995Z,100771.22
2022-08-31T12:20:06.846Z,100765.86
2022-08-31T12:22:11.473Z,100762.91
2022-08-31T12:24:19.775Z,100764.6
2022-08-31T12:26:25.219Z,100768.25
2022-08-31T12:28:30.634Z,100764.99
2022-08-31T12:30:35.296Z,100763.53
2022-08-31T12:32:40.008Z,100763.22
2022-08-31T12:34:44.627Z,100765.34
2022-08-31T12:36:51.906Z,100759.81
2022-08-31T12:38:56.538Z,100761.27
2022-08-31T12:41:01.053Z,100758.58
2022-08-31T12:43:05.558Z,100761
2022-08-31T12:45:10.183Z,100756.34
2022-08-31T12:47:14.804Z,100751.33
2022-08-31T12:49:19.435Z,100754.77
2022-08-31T12:51:24.269Z,100747.76
2022-08-31T12:53:28.862Z,100749.83
2022-08-31T12:55:33.606Z,100746.78
2022-08-31T12:57:38.332Z,100742.59
2022-08-31T13:00:02.261Z,100736.36
2022-08-31T13:02:10.810Z,100736.09
2022-08-31T13:04:15.953Z,100733.38
2022-08-31T13:06:20.574Z,100731.09
2022-08-31T13:08:25.192Z,100726.52
2022-08-31T13:10:29.713Z,100728.02
2022-08-31T13:12:34.328Z,100727.95
2022-08-31T13:14:38.955Z,100726
2022-08-31T13:16:43.744Z,100725.27
2022-08-31T13:18:48.610Z,100723.89
2022-08-31T13:20:58.860Z,100725.14
2022-08-31T13:23:03.418Z,100723.7
2022-08-31T13:25:08.110Z,100723.22
2022-08-31T13:27:12.735Z,100720.25
2022-08-31T13:29:17.325Z,100716.95
2022-08-31T13:31:21.995Z,100712.48
2022-08-31T13:33:26.693Z,100710.89
2022-08-31T13:35:31.317Z,100704.83
2022-08-31T13:37:35.911Z,100706.65
2022-08-31T13:39:40.458Z,100703.28
2022-08-31T13:41:45.078Z,100713.98
2022-08-31T13:43:49.695Z,100707.28
2022-08-31T13:45:54.477Z,100706.64
2022-08-31T13:47:59.433Z,100712.56
2022-08-31T13:50:04.070Z,100711.84
2022-08-31T13:52:08.791Z,100715.77
2022-08-31T13:54:13.427Z,100713.8
2022-08-31T13:56:18.039Z,100715.28
2022-08-31T13:58:23.071Z,100715.44
2022-08-31T14:00:27.529Z,100714.3
2022-08-31T14:02:38.677Z,100716.24
2022-08-31T14:04:43.404Z,100707.67
2022-08-31T14:06:47.965Z,100705.69
2022-08-31T14:08:52.410Z,100708.52
2022-08-31T14:10:57.067Z,100705.88
2022-08-31T14:13:01.658Z,100708.36
2022-08-31T14:15:06.276Z,100708.31
2022-08-31T14:17:11.056Z,100711.25
2022-08-31T14:19:15.815Z,100710.06
2022-08-31T14:21:24.090Z,100711.5
2022-08-31T14:23:29.070Z,100712.09
2022-08-31T14:25:33.789Z,100712.41
2022-08-31T14:27:38.415Z,100711.06
2022-08-31T14:29:43.057Z,100709.77
2022-08-31T14:31:47.655Z,100714.47
2022-08-31T14:33:52.278Z,100712.16
2022-08-31T14:35:57.108Z,100713.25
2022-08-31T14:38:03.567Z,100712.81
2022-08-31T14:40:09.519Z,100708.98
2022-08-31T14:42:14.348Z,100706.31
2022-08-31T14:44:19.182Z,100708.03
2022-08-31T14:46:23.965Z,100709.31
2022-08-31T14:48:28.717Z,100712.14
2022-08-31T14:50:33.452Z,100707.63
2022-08-31T14:52:38.078Z,100705.59
2022-08-31T14:54:42.563Z,100703.38
2022-08-31T14:56:47.212Z,100698.94
2022-08-31T14:58:52.887Z,100700.2
2022-08-31T15:00:58.613Z,100699.54
2022-08-31T15:03:03.333Z,100696.86
2022-08-31T15:05:07.954Z,100697.2
2022-08-31T15:07:12.579Z,100698.42
2022-08-31T15:09:17.198Z,100701.55
2022-08-31T15:11:21.772Z,100700.69
2022-08-31T15:13:30.325Z,100695.83
2022-08-31T15:15:38.017Z,100697.82
2022-08-31T15:17:42.639Z,100698.25
2022-08-31T15:19:47.263Z,100698.57
2022-08-31T15:22:02.796Z,100696.65
2022-08-31T15:24:07.879Z,100696.15
2022-08-31T15:26:12.610Z,100693.97
2022-08-31T15:28:17.416Z,100694.78
2022-08-31T15:30:22.452Z,100695.25
2022-08-31T15:32:27.074Z,100695.27
2022-08-31T15:34:31.697Z,100694.79
2022-08-31T15:36:36.226Z,100694.37
2022-08-31T15:38:40.890Z,100694.69
2022-08-31T15:40:49.288Z,100695.64
2022-08-31T15:42:54.121Z,100689.23
2022-08-31T15:44:58.717Z,100691.59
2022-08-31T15:47:03.293Z,100690.12
2022-08-31T15:49:07.972Z,100686.69
2022-08-31T15:51:12.663Z,100687.36
2022-08-31T15:53:17.269Z,100685.69
2022-08-31T15:55:21.908Z,100682.02
2022-08-31T15:57:26.637Z,100682.13
2022-08-31T15:59:31.247Z,100678.16
2022-08-31T16:01:37.255Z,100677.22
2022-08-31T16:03:42.158Z,100677.47
2022-08-31T16:05:47.040Z,100675.13
2022-08-31T16:07:51.862Z,100673.3
2022-08-31T16:09:56.406Z,100674.05
2022-08-31T16:12:01.024Z,100674.95
2022-08-31T16:14:05.758Z,100670.88
2022-08-31T16:16:10.592Z,100672.39
2022-08-31T16:18:15.482Z,100675.98
2022-08-31T16:20:20.101Z,100673.18
2022-08-31T16:22:32.020Z,100673.51
2022-08-31T16:24:36.711Z,100671.09
2022-08-31T16:26:41.299Z,100665.86
2022-08-31T16:28:45.939Z,100669.5
2022-08-31T16:30:52.349Z,100672.68
2022-08-31T16:32:56.908Z,100672.47
2022-08-31T16:35:01.593Z,100672.75
2022-08-31T16:37:06.414Z,100676.22
2022-08-31T16:39:11.032Z,100679.44
2022-08-31T16:41:15.635Z,100677.41
2022-08-31T16:43:20.380Z,100677.5
2022-08-31T16:45:25.284Z,100675.41
2022-08-31T16:47:29.962Z,100674.6
2022-08-31T16:49:34.644Z,100671.49
2022-08-31T16:51:39.276Z,100677.89
2022-08-31T16:53:43.981Z,100676.05
2022-08-31T16:55:48.787Z,100677.81
2022-08-31T16:57:53.357Z,100682.8
2022-08-31T16:59:57.963Z,100682
2022-08-31T17:02:02.723Z,100681.31
2022-08-31T17:04:07.370Z,100678.26
2022-08-31T17:06:11.934Z,100677.78
2022-08-31T17:08:16.557Z,100680.39
2022-08-31T17:10:21.190Z,100684.14
2022-08-31T17:12:26.020Z,100680.55
2022-08-31T17:14:31.033Z,100683
2022-08-31T17:16:36.094Z,100684.59
2022-08-31T17:18:41.651Z,100685.83
2022-08-31T17:20:46.237Z,100687.34
2022-08-31T17:22:51.056Z,100688.8
2022-08-31T17:24:55.884Z,100692.34
2022-08-31T17:27:00.743Z,100693.25
2022-08-31T17:29:05.538Z,100691.17
2022-08-31T17:31:10.111Z,100695.89
2022-08-31T17:33:14.882Z,100694.73
2022-08-31T17:35:20.274Z,100694.03
2022-08-31T17:37:24.847Z,100695.33
2022-08-31T17:39:29.425Z,100693.91
2022-08-31T17:41:34.052Z,100701.02
2022-08-31T17:43:38.607Z,100699.41
2022-08-31T17:45:43.180Z,100698.27
2022-08-31T17:47:47.950Z,100705.59
2022-08-31T17:49:52.423Z,100707.08
2022-08-31T17:51:57.328Z,100705.52
2022-08-31T17:54:03.245Z,100707.3
2022-08-31T17:56:07.843Z,100711.34
2022-08-31T17:58:12.534Z,100707.08
2022-08-31T18:00:17.183Z,100706.75
2022-08-31T18:02:22.756Z,100708.94
2022-08-31T18:04:27.539Z,100708.56
2022-08-31T18:06:32.761Z,100711.67
2022-08-31T18:08:37.552Z,100710.72
2022-08-31T18:10:42.170Z,100714.78
2022-08-31T18:12:46.994Z,100716.55
2022-08-31T18:14:51.605Z,100719.66
2022-08-31T18:16:56.332Z,100720.41
2022-08-31T18:19:01.159Z,100720.55
2022-08-31T18:21:05.781Z,100724.09
2022-08-31T18:23:10.427Z,100726.4
2022-08-31T18:25:15.109Z,100725.17
2022-08-31T18:27:20.108Z,100723.82
2022-08-31T18:29:26.178Z,100728.95
2022-08-31T18:31:31.294Z,100722.97
2022-08-31T18:33:36.045Z,100724.67
2022-08-31T18:35:41.619Z,100724.84
2022-08-31T18:37:46.271Z,100729.52
2022-08-31T18:39:53.160Z,100725.14
2022-08-31T18:41:57.831Z,100726.77
2022-08-31T18:44:02.792Z,100729.64
2022-08-31T18:46:07.587Z,100732.22
2022-08-31T18:48:26.661Z,100722.94
2022-08-31T18:50:36.571Z,100727.02
2022-08-31T18:52:48.691Z,100725.98
2022-08-31T18:54:53.416Z,100729.77
2022-08-31T18:56:58.243Z,100728.8
2022-08-31T18:59:03.178Z,100729.86
2022-08-31T19:01:08.325Z,100730.95
2022-08-31T19:03:13.373Z,100731.73
2022-08-31T19:05:18.083Z,100729.14
2022-08-31T19:07:22.788Z,100729.42
2022-08-31T19:09:27.502Z,100729.31
2022-08-31T19:11:33.426Z,100733.59
2022-08-31T19:13:38.167Z,100728.75
2022-08-31T19:15:42.813Z,100729.4
2022-08-31T19:17:48.310Z,100728.55
2022-08-31T19:19:53.179Z,100728.31
2022-08-31T19:21:59.169Z,100729.72
2022-08-31T19:24:07.353Z,100732.3
2022-08-31T19:26:12.048Z,100732
2022-08-31T19:28:16.830Z,100736.14
2022-08-31T19:30:28.334Z,100731.51
2022-08-31T19:32:33.508Z,100734.04
2022-08-31T19:34:39.783Z,100737.97
2022-08-31T19:36:44.494Z,100739.91
2022-08-31T19:38:49.317Z,100740.8
2022-08-31T19:40:54.175Z,100740.31
2022-08-31T19:43:42.881Z,100742.34
2022-08-31T19:46:09.449Z,100746.05
2022-08-31T19:48:17.181Z,100743.47
2022-08-31T19:50:22.039Z,100742.11
2022-08-31T19:52:26.786Z,100743.23
2022-08-31T19:54:32.459Z,100742.48
2022-08-31T19:56:37.140Z,100742.09
2022-08-31T19:58:41.784Z,100745
2022-08-31T20:00:49.760Z,100745.89
2022-08-31T20:02:54.514Z,100750.81
2022-08-31T20:04:59.308Z,100749.47
2022-08-31T20:07:04.848Z,100748.19
2022-08-31T20:09:09.594Z,100746.3
2022-08-31T20:11:21.401Z,100749.23
2022-08-31T20:13:26.295Z,100751.28
2022-08-31T20:15:30.939Z,100749.81
2022-08-31T20:17:35.675Z,100748.28
2022-08-31T20:19:40.331Z,100752.13
2022-08-31T20:21:44.880Z,100746.59
2022-08-31T20:23:49.610Z,100749.55
2022-08-31T20:25:54.228Z,100749.75
2022-08-31T20:28:00.334Z,100754.69
2022-08-31T20:30:05.112Z,100757.33
2022-08-31T20:32:09.740Z,100758.05
2022-08-31T20:34:19.775Z,100762.33
2022-08-31T20:36:24.380Z,100765.11
2022-08-31T20:38:29.019Z,100767.18
2022-08-31T20:40:33.871Z,100765.89
2022-08-31T20:42:38.553Z,100766.7
2022-08-31T20:44:44.223Z,100765.11
2022-08-31T20:46:53.812Z,100764.09
2022-08-31T20:48:58.471Z,100759.81
2022-08-31T20:51:03.088Z,100766.91
2022-08-31T20:53:07.589Z,100766.13
2022-08-31T20:55:12.135Z,100760.29
2022-08-31T20:57:16.637Z,100760.61
2022-08-31T20:59:21.271Z,100761.95
2022-08-31T21:01:25.997Z,100764.8
2022-08-31T21:03:30.597Z,100765.16
2022-08-31T21:05:39.740Z,100768.13
2022-08-31T21:07:44.336Z,100764.89
2022-08-31T21:09:48.892Z,100769.34
2022-08-31T21:11:53.610Z,100766.6
2022-08-31T21:13:58.697Z,100766.2
2022-08-31T21:16:03.311Z,100766.21
2022-08-31T21:18:07.989Z,100766.08
2022-08-31T21:20:12.699Z,100764.91
2022-08-31T21:22:17.334Z,100762.91
2022-08-31T21:24:22.050Z,100762.38
2022-08-31T21:26:26.676Z,100765.34
2022-08-31T21:28:31.297Z,100768.47
2022-08-31T21:30:35.921Z,100767.56
2022-08-31T21:32:40.656Z,100765.47
2022-08-31T21:34:45.263Z,100761.41
2022-08-31T21:36:49.888Z,100759.38
2022-08-31T21:38:54.503Z,100759.88
2022-08-31T21:40:59.128Z,100758.83
2022-08-31T21:43:03.746Z,100756.22
2022-08-31T21:45:08.366Z,100755.17
2022-08-31T21:47:12.950Z,100758.76
2022-08-31T21:49:17.510Z,100760.36
2022-08-31T21:51:22.346Z,100762.1
2022-08-31T21:53:26.977Z,100762.44
2022-08-31T21:55:31.579Z,100765.61
2022-08-31T21:57:36.254Z,100764.51
2022-08-31T21:59:40.925Z,100769.42
2022-08-31T22:01:45.653Z,100768.98
2022-08-31T22:03:50.375Z,100767.09
2022-08-31T22:05:54.942Z,100768.22
2022-08-31T22:07:59.512Z,100770.14
2022-08-31T22:10:04.131Z,100773.75
2022-08-31T22:12:08.757Z,100770.61
2022-08-31T22:14:13.480Z,100769.84
2022-08-31T22:16:20.841Z,100772.38
2022-08-31T22:19:02.488Z,100768.55
2022-08-31T22:21:08.458Z,100771.11
2022-08-31T22:23:13.273Z,100769.25
2022-08-31T22:25:20.003Z,100773.04
2022-08-31T22:27:24.631Z,100774.19
2022-08-31T22:29:29.809Z,100779.66
2022-08-31T22:31:34.555Z,100779.16
2022-08-31T22:33:48.215Z,100780.8
2022-08-31T22:35:52.837Z,100779.66
2022-08-31T22:37:57.355Z,100782.39
2022-08-31T22:40:02.101Z,100776.82
2022-08-31T22:42:06.769Z,100773.4
2022-08-31T22:44:11.327Z,100775.9
2022-08-31T22:46:16.114Z,100773.03
2022-08-31T22:48:21.365Z,100775.28
2022-08-31T22:50:26.099Z,100774.82
2022-08-31T22:52:30.631Z,100773.28
2022-08-31T22:54:35.149Z,100771.13
2022-08-31T22:56:39.875Z,100764.66
2022-08-31T22:58:44.567Z,100770.64
2022-08-31T23:00:49.233Z,100769.52
2022-08-31T23:02:53.759Z,100769.09
2022-08-31T23:04:58.358Z,100769.97
2022-08-31T23:07:02.875Z,100767.88
2022-08-31T23:09:07.499Z,100766.34
2022-08-31T23:11:11.995Z,100765.38
2022-08-31T23:13:16.738Z,100761.69
2022-08-31T23:15:21.444Z,100760.39
2022-08-31T23:17:26.083Z,100759.94
2022-08-31T23:19:30.705Z,100760.13
2022-08-31T23:21:35.224Z,100756.72
2022-08-31T23:23:39.847Z,100755.75
2022-08-31T23:25:44.559Z,100754.93
2022-08-31T23:27:49.511Z,100752.7
2022-08-31T23:29:54.024Z,100752.6
2022-08-31T23:31:58.651Z,100749.63
2022-08-31T23:34:03.258Z,100749.97
2022-08-31T23:36:07.889Z,100750.89
2022-08-31T23:38:12.637Z,100754.19
2022-08-31T23:40:17.521Z,100751.41
2022-08-31T23:42:22.267Z,100750.72
2022-08-31T23:44:26.781Z,100749.95
2022-08-31T23:46:31.571Z,100747.63
2022-08-31T23:48:36.192Z,100750.41
2022-08-31T23:50:40.713Z,100748.39
2022-08-31T23:52:45.270Z,100748.66
2022-08-31T23:54:49.890Z,100747.08
2022-08-31T23:56:54.484Z,100749.78